createdAt,value
2022-11-05T00:10:04.384Z,99338.41
2022-11-05T00:20:09.823Z,99346.33
2022-11-05T00:30:18.280Z,99359.73
2022-11-05T00:40:21.521Z,99340.39
2022-11-05T00:50:25.529Z,99343.51
2022-11-05T01:00:30.750Z,99326.53
2022-11-05T01:10:34.002Z,99320.20
2022-11-05T01:20:37.613Z,99317.95
2022-11-05T01:30:41.043Z,99303.23
2022-11-05T01:40:45.322Z,99290.91
2022-11-05T01:51:07.254Z,99285.39
2022-11-05T02:01:11.897Z,99283.80
2022-11-05T02:11:18.634Z,99289.23
2022-11-05T02:21:43.459Z,99282.63
2022-11-05T02:32:05.955Z,99269.88
2022-11-05T02:42:31.057Z,99267.59
2022-11-05T02:52:50.528Z,99264.71
2022-11-05T03:02:54.035Z,99268.06
2022-11-05T03:13:19.551Z,99270.77
2022-11-05T03:23:33.564Z,99271.87
2022-11-05T03:33:40.278Z,99288.95
2022-11-05T03:43:49.287Z,99293.89
2022-11-05T03:53:58.156Z,99300.73
2022-11-05T04:04:01.381Z,99306.04
2022-11-05T04:14:04.853Z,99319.53
2022-11-05T04:24:11.329Z,99320.44
2022-11-05T04:34:16.469Z,99331.61
2022-11-05T04:44:19.674Z,99320.52
2022-11-05T04:54:22.995Z,99306.69
2022-11-05T05:04:26.338Z,99313.21
2022-11-05T05:14:29.612Z,99331.52
2022-11-05T05:24:32.867Z,99328.15
2022-11-05T05:34:36.112Z,99352.38
2022-11-05T05:44:39.538Z,99368.20
2022-11-05T05:54:43.239Z,99356.95
2022-11-05T06:04:46.697Z,99376.04
2022-11-05T06:14:49.958Z,99370.26
2022-11-05T06:24:53.195Z,99380.40
2022-11-05T06:34:56.504Z,99400.92
2022-11-05T06:44:59.867Z,99409.98
2022-11-05T06:55:03.184Z,99416.39
2022-11-05T07:05:07.621Z,99434.70
2022-11-05T07:15:12.722Z,99437.65
2022-11-05T07:25:15.987Z,99446.99
2022-11-05T07:35:19.245Z,99447.63
2022-11-05T07:45:23.572Z,99452.86
2022-11-05T07:55:27.002Z,99456.83
2022-11-05T08:05:31.625Z,99467.28
2022-11-05T08:15:35.659Z,99484.80
2022-11-05T08:25:40.086Z,99488.41
2022-11-05T08:35:43.895Z,99501.98
2022-11-05T08:45:47.271Z,99500.73
2022-11-05T08:55:51.692Z,99513.06
2022-11-05T09:05:54.953Z,99523.59
2022-11-05T09:15:59.528Z,99527.76
2022-11-05T09:26:02.947Z,99532.91
2022-11-05T09:36:06.979Z,99530.53
2022-11-05T09:46:39.241Z,99547.50
2022-11-05T09:56:42.567Z,99557.17
2022-11-05T10:06:59.522Z,99576.30
2022-11-05T10:17:15.989Z,99588.09
2022-11-05T10:27:27.845Z,99588.32
2022-11-05T10:37:40.630Z,99599.04
2022-11-05T10:48:15.952Z,99611.48
2022-11-05T10:58:29.159Z,99625.71
2022-11-05T11:08:35.855Z,99641.55
2022-11-05T11:18:42.319Z,99645.88
2022-11-05T11:29:01.934Z,99659.17
2022-11-05T11:39:07.375Z,99661.62
2022-11-05T11:49:40.454Z,99666.95
2022-11-05T12:00:10.253Z,99669.96
2022-11-05T12:10:37.851Z,99679.63
2022-11-05T12:21:05.296Z,99686.77
2022-11-05T12:31:08.577Z,99686.41
2022-11-05T12:41:27.036Z,99684.31
2022-11-05T12:51:49.482Z,99681.96
2022-11-05T13:02:03.743Z,99695.84
2022-11-05T13:12:12.235Z,99709.02
2022-11-05T13:22:15.470Z,99713.09
2022-11-05T13:32:27.390Z,99727.55
2022-11-05T13:42:36.742Z,99743.62
2022-11-05T13:53:05.194Z,99769.36
2022-11-05T14:03:20.996Z,99767.73
2022-11-05T14:13:31.579Z,99774.42
2022-11-05T14:23:48.878Z,99797.54
2022-11-05T14:34:03.788Z,99810.90
2022-11-05T14:44:08.694Z,99825.08
2022-11-05T14:54:24.248Z,99826.80
2022-11-05T15:04:33.491Z,99823.89
2022-11-05T15:14:47.086Z,99836.42
2022-11-05T15:24:50.878Z,99834.41
2022-11-05T15:34:56.041Z,99839.76
2022-11-05T15:45:00.607Z,99855.46
2022-11-05T15:55:13.075Z,99858.95
2022-11-05T16:05:16.328Z,99858.23
2022-11-05T16:15:23.579Z,99866.81
2022-11-05T16:25:40.434Z,99880.15
2022-11-05T16:35:49.517Z,99901.21
2022-11-05T16:45:59.938Z,99911.64
2022-11-05T16:56:04.624Z,99924.20
2022-11-05T17:06:08.125Z,99939.14
2022-11-05T17:16:14.003Z,99948.17
2022-11-05T17:26:17.343Z,99962.47
2022-11-05T17:36:20.580Z,99969.89
2022-11-05T17:46:24.954Z,99974.11
2022-11-05T17:56:34.452Z,99978.81
2022-11-05T18:06:41.125Z,99990.26
2022-11-05T18:16:44.527Z,99996.71
2022-11-05T18:26:48.224Z,100003.50
2022-11-05T18:36:56.215Z,100015.42
2022-11-05T18:47:00.162Z,100026.45
2022-11-05T18:57:03.764Z,100034.23
2022-11-05T19:07:08.541Z,100041.52
2022-11-05T19:17:12.015Z,100046.32
2022-11-05T19:27:16.593Z,100053.52
2022-11-05T19:37:20.821Z,100055.17
2022-11-05T19:47:24.173Z,100066.25
2022-11-05T19:57:28.009Z,100075.11
2022-11-05T20:07:31.288Z,100079.98
2022-11-05T20:17:34.876Z,100079.23
2022-11-05T20:27:38.800Z,100080.63
2022-11-05T20:37:42.178Z,100087.75
2022-11-05T20:47:45.710Z,100091.57
2022-11-05T20:57:49.055Z,100096.42
2022-11-05T21:07:52.934Z,100097.55
2022-11-05T21:17:56.360Z,100103.71
2022-11-05T21:28:03.051Z,100109.52
2022-11-05T21:38:06.399Z,100111.13
2022-11-05T21:48:10.376Z,100118.52
2022-11-05T21:58:34.999Z,100124.70
2022-11-05T22:08:38.236Z,100133.45
2022-11-05T22:18:41.550Z,100133.86
2022-11-05T22:28:44.924Z,100139.09
2022-11-05T22:38:48.728Z,100149.52
2022-11-05T22:48:52.711Z,100149.96
2022-11-05T22:58:56.363Z,100153.22
2022-11-05T23:09:18.819Z,100155.13
2022-11-05T23:19:42.037Z,100161.63
2022-11-05T23:29:45.319Z,100161.51
2022-11-05T23:39:48.571Z,100167.20
2022-11-05T23:49:52.232Z,100178.46
2022-11-05T23:59:55.460Z,100184.34
